sensor_id;sensor_type;location;lat;lon;timestamp;temperature;humidity
9311;DHT22;4694;52.464;13.480;2024-01-30T00:01:51;2.70;99.90
9311;DHT22;4694;52.464;13.480;2024-01-30T00:04:18;2.70;99.90
9311;DHT22;4694;52.464;13.480;2024-01-30T00:06:46;2.70;99.90
9311;DHT22;4694;52.464;13.480;2024-01-30T00:09:12;2.70;99.90
9311;DHT22;4694;52.464;13.480;2024-01-30T00:11:39;2.70;99.90
9311;DHT22;4694;52.464;13.480;2024-01-30T00:14:06;2.60;99.90
9311;DHT22;4694;52.464;13.480;2024-01-30T00:16:32;2.60;99.90
9311;DHT22;4694;52.464;13.480;2024-01-30T00:18:59;2.60;99.90
9311;DHT22;4694;52.464;13.480;2024-01-30T00:21:27;2.50;99.90
9311;DHT22;4694;52.464;13.480;2024-01-30T00:23:55;2.50;99.90
9311;DHT22;4694;52.464;13.480;2024-01-30T00:26:22;2.50;99.90
9311;DHT22;4694;52.464;13.480;2024-01-30T00:28:49;2.50;99.90
9311;DHT22;4694;52.464;13.480;2024-01-30T00:31:15;2.50;99.90
9311;DHT22;4694;52.464;13.480;2024-01-30T00:33:42;2.40;99.90
9311;DHT22;4694;52.464;13.480;2024-01-30T00:36:09;2.40;99.90
9311;DHT22;4694;52.464;13.480;2024-01-30T00:38:36;2.40;99.90
9311;DHT22;4694;52.464;13.480;2024-01-30T00:41:05;2.40;99.90
9311;DHT22;4694;52.464;13.480;2024-01-30T00:43:31;2.40;99.90
9311;DHT22;4694;52.464;13.480;2024-01-30T00:45:58;2.40;99.90
9311;DHT22;4694;52.464;13.480;2024-01-30T00:48:25;2.30;99.90
9311;DHT22;4694;52.464;13.480;2024-01-30T00:50:51;2.30;99.90
9311;DHT22;4694;52.464;13.480;2024-01-30T00:53:18;2.30;99.90
9311;DHT22;4694;52.464;13.480;2024-01-30T00:55:45;2.30;99.90
9311;DHT22;4694;52.464;13.480;2024-01-30T00:58:13;2.30;99.90
9311;DHT22;4694;52.464;13.480;2024-01-30T01:00:39;2.30;99.90
9311;DHT22;4694;52.464;13.480;2024-01-30T01:03:06;2.30;99.90
9311;DHT22;4694;52.464;13.480;2024-01-30T01:05:33;2.30;99.90
9311;DHT22;4694;52.464;13.480;2024-01-30T01:07:59;2.30;99.90
9311;DHT22;4694;52.464;13.480;2024-01-30T01:10:26;2.30;99.90
9311;DHT22;4694;52.464;13.480;2024-01-30T01:12:53;2.20;99.90
9311;DHT22;4694;52.464;13.480;2024-01-30T01:15:21;2.20;99.90
9311;DHT22;4694;52.464;13.480;2024-01-30T01:17:48;2.20;99.90
9311;DHT22;4694;52.464;13.480;2024-01-30T01:20:14;2.20;99.90
9311;DHT22;4694;52.464;13.480;2024-01-30T01:22:41;2.20;99.90
9311;DHT22;4694;52.464;13.480;2024-01-30T01:25:08;2.10;99.90
9311;DHT22;4694;52.464;13.480;2024-01-30T01:27:35;2.10;99.90
9311;DHT22;4694;52.464;13.480;2024-01-30T01:30:07;2.10;99.90
9311;DHT22;4694;52.464;13.480;2024-01-30T01:32:36;2.10;99.90
9311;DHT22;4694;52.464;13.480;2024-01-30T01:35:04;2.00;99.90
9311;DHT22;4694;52.464;13.480;2024-01-30T01:37:30;2.00;99.90
9311;DHT22;4694;52.464;13.480;2024-01-30T01:39:57;2.00;99.90
9311;DHT22;4694;52.464;13.480;2024-01-30T01:42:24;2.00;99.90
9311;DHT22;4694;52.464;13.480;2024-01-30T01:44:50;2.00;99.90
9311;DHT22;4694;52.464;13.480;2024-01-30T01:47:17;2.00;99.90
9311;DHT22;4694;52.464;13.480;2024-01-30T01:49:45;1.90;99.90
9311;DHT22;4694;52.464;13.480;2024-01-30T01:52:12;1.90;99.90
9311;DHT22;4694;52.464;13.480;2024-01-30T01:54:38;1.90;99.90
9311;DHT22;4694;52.464;13.480;2024-01-30T01:57:05;1.90;99.90
9311;DHT22;4694;52.464;13.480;2024-01-30T01:59:32;1.90;99.90
9311;DHT22;4694;52.464;13.480;2024-01-30T02:01:59;1.90;99.90
9311;DHT22;4694;52.464;13.480;2024-01-30T02:04:29;1.90;99.90
9311;DHT22;4694;52.464;13.480;2024-01-30T02:06:57;1.90;99.90
9311;DHT22;4694;52.464;13.480;2024-01-30T02:09:24;1.90;99.90
9311;DHT22;4694;52.464;13.480;2024-01-30T02:11:51;2.00;99.90
9311;DHT22;4694;52.464;13.480;2024-01-30T02:14:17;2.00;99.90
9311;DHT22;4694;52.464;13.480;2024-01-30T02:16:44;1.90;99.90
9311;DHT22;4694;52.464;13.480;2024-01-30T02:19:11;2.00;99.90
9311;DHT22;4694;52.464;13.480;2024-01-30T02:21:39;2.00;99.90
9311;DHT22;4694;52.464;13.480;2024-01-30T02:24:05;2.00;99.90
9311;DHT22;4694;52.464;13.480;2024-01-30T02:26:32;2.00;99.90
9311;DHT22;4694;52.464;13.480;2024-01-30T02:28:59;2.00;99.90
9311;DHT22;4694;52.464;13.480;2024-01-30T02:31:25;2.00;99.90
9311;DHT22;4694;52.464;13.480;2024-01-30T02:33:52;2.00;99.90
9311;DHT22;4694;52.464;13.480;2024-01-30T02:36:19;2.00;99.90
9311;DHT22;4694;52.464;13.480;2024-01-30T02:38:47;2.00;99.90
9311;DHT22;4694;52.464;13.480;2024-01-30T02:41:13;2.00;99.90
9311;DHT22;4694;52.464;13.480;2024-01-30T02:43:40;2.00;99.90
9311;DHT22;4694;52.464;13.480;2024-01-30T02:46:07;2.00;99.90
9311;DHT22;4694;52.464;13.480;2024-01-30T02:48:33;2.00;99.90
9311;DHT22;4694;52.464;13.480;2024-01-30T02:51:00;2.00;99.90
9311;DHT22;4694;52.464;13.480;2024-01-30T02:53:26;1.90;99.90
9311;DHT22;4694;52.464;13.480;2024-01-30T02:55:54;1.90;99.90
9311;DHT22;4694;52.464;13.480;2024-01-30T02:58:21;1.90;99.90
9311;DHT22;4694;52.464;13.480;2024-01-30T03:00:47;2.00;99.90
9311;DHT22;4694;52.464;13.480;2024-01-30T03:03:14;2.00;99.90
9311;DHT22;4694;52.464;13.480;2024-01-30T03:05:41;2.00;99.90
9311;DHT22;4694;52.464;13.480;2024-01-30T03:08:07;2.00;99.90
9311;DHT22;4694;52.464;13.480;2024-01-30T03:10:34;2.00;99.90
9311;DHT22;4694;52.464;13.480;2024-01-30T03:13:02;2.00;99.90
9311;DHT22;4694;52.464;13.480;2024-01-30T03:15:29;2.00;99.90
9311;DHT22;4694;52.464;13.480;2024-01-30T03:17:55;2.00;99.90
9311;DHT22;4694;52.464;13.480;2024-01-30T03:20:22;2.00;99.90
9311;DHT22;4694;52.464;13.480;2024-01-30T03:22:48;2.00;99.90
9311;DHT22;4694;52.464;13.480;2024-01-30T03:25:15;2.00;99.90
9311;DHT22;4694;52.464;13.480;2024-01-30T03:27:42;2.00;99.90
9311;DHT22;4694;52.464;13.480;2024-01-30T03:30:10;2.00;99.90
9311;DHT22;4694;52.464;13.480;2024-01-30T03:32:37;2.00;99.90
9311;DHT22;4694;52.464;13.480;2024-01-30T03:35:04;2.00;99.90
9311;DHT22;4694;52.464;13.480;2024-01-30T03:37:31;2.00;99.90
9311;DHT22;4694;52.464;13.480;2024-01-30T03:39:57;2.00;99.90
9311;DHT22;4694;52.464;13.480;2024-01-30T03:42:24;1.90;99.90
9311;DHT22;4694;52.464;13.480;2024-01-30T03:44:50;1.90;99.90
9311;DHT22;4694;52.464;13.480;2024-01-30T03:47:20;1.90;99.90
9311;DHT22;4694;52.464;13.480;2024-01-30T03:49:47;1.90;99.90
9311;DHT22;4694;52.464;13.480;2024-01-30T03:52:13;1.90;99.90
9311;DHT22;4694;52.464;13.480;2024-01-30T03:54:40;1.90;99.90
9311;DHT22;4694;52.464;13.480;2024-01-30T03:57:06;1.90;99.90
9311;DHT22;4694;52.464;13.480;2024-01-30T03:59:33;1.90;99.90
9311;DHT22;4694;52.464;13.480;2024-01-30T04:02:00;1.90;99.90
9311;DHT22;4694;52.464;13.480;2024-01-30T04:04:27;1.90;99.90
9311;DHT22;4694;52.464;13.480;2024-01-30T04:06:54;1.90;99.90
9311;DHT22;4694;52.464;13.480;2024-01-30T04:09:21;1.80;99.90
9311;DHT22;4694;52.464;13.480;2024-01-30T04:11:47;1.90;99.90
9311;DHT22;4694;52.464;13.480;2024-01-30T04:14:14;1.90;99.90
9311;DHT22;4694;52.464;13.480;2024-01-30T04:16:41;1.90;99.90
9311;DHT22;4694;52.464;13.480;2024-01-30T04:19:07;1.80;99.90
9311;DHT22;4694;52.464;13.480;2024-01-30T04:21:35;1.90;99.90
9311;DHT22;4694;52.464;13.480;2024-01-30T04:24:02;1.90;99.90
9311;DHT22;4694;52.464;13.480;2024-01-30T04:26:29;1.90;99.90
9311;DHT22;4694;52.464;13.480;2024-01-30T04:28:55;1.90;99.90
9311;DHT22;4694;52.464;13.480;2024-01-30T04:31:22;1.90;99.90
9311;DHT22;4694;52.464;13.480;2024-01-30T04:33:48;1.90;99.90
9311;DHT22;4694;52.464;13.480;2024-01-30T04:36:15;1.80;99.90
9311;DHT22;4694;52.464;13.480;2024-01-30T04:38:43;1.80;99.90
9311;DHT22;4694;52.464;13.480;2024-01-30T04:41:10;1.80;99.90
9311;DHT22;4694;52.464;13.480;2024-01-30T04:43:36;1.80;99.90
9311;DHT22;4694;52.464;13.480;2024-01-30T04:46:04;1.80;99.90
9311;DHT22;4694;52.464;13.480;2024-01-30T04:48:30;1.80;99.90
9311;DHT22;4694;52.464;13.480;2024-01-30T04:50:57;1.80;99.90
9311;DHT22;4694;52.464;13.480;2024-01-30T04:53:23;1.80;99.90
9311;DHT22;4694;52.464;13.480;2024-01-30T04:55:52;1.80;99.90
9311;DHT22;4694;52.464;13.480;2024-01-30T04:58:18;1.80;99.90
9311;DHT22;4694;52.464;13.480;2024-01-30T05:00:45;1.80;99.90
9311;DHT22;4694;52.464;13.480;2024-01-30T05:03:16;1.80;99.90
9311;DHT22;4694;52.464;13.480;2024-01-30T05:05:43;1.80;99.90
9311;DHT22;4694;52.464;13.480;2024-01-30T05:08:10;1.80;99.90
9311;DHT22;4694;52.464;13.480;2024-01-30T05:10:36;1.90;99.90
9311;DHT22;4694;52.464;13.480;2024-01-30T05:13:04;1.80;99.90
9311;DHT22;4694;52.464;13.480;2024-01-30T05:15:31;1.90;99.90
9311;DHT22;4694;52.464;13.480;2024-01-30T05:17:58;1.90;99.90
9311;DHT22;4694;52.464;13.480;2024-01-30T05:20:24;1.90;99.90
9311;DHT22;4694;52.464;13.480;2024-01-30T05:22:53;1.90;99.90
9311;DHT22;4694;52.464;13.480;2024-01-30T05:25:20;1.90;99.90
9311;DHT22;4694;52.464;13.480;2024-01-30T05:27:46;1.90;99.90
9311;DHT22;4694;52.464;13.480;2024-01-30T05:30:15;1.90;99.90
9311;DHT22;4694;52.464;13.480;2024-01-30T05:32:41;1.90;99.90
9311;DHT22;4694;52.464;13.480;2024-01-30T05:35:08;1.90;99.90
9311;DHT22;4694;52.464;13.480;2024-01-30T05:37:34;1.90;99.90
9311;DHT22;4694;52.464;13.480;2024-01-30T05:40:01;1.90;99.90
9311;DHT22;4694;52.464;13.480;2024-01-30T05:42:28;1.90;99.90
9311;DHT22;4694;52.464;13.480;2024-01-30T05:44:55;1.90;99.90
9311;DHT22;4694;52.464;13.480;2024-01-30T05:47:23;1.90;99.90
9311;DHT22;4694;52.464;13.480;2024-01-30T05:49:50;1.90;99.90
9311;DHT22;4694;52.464;13.480;2024-01-30T05:52:17;1.90;99.90
9311;DHT22;4694;52.464;13.480;2024-01-30T05:54:44;1.90;99.90
9311;DHT22;4694;52.464;13.480;2024-01-30T05:57:11;2.00;99.90
9311;DHT22;4694;52.464;13.480;2024-01-30T05:59:37;1.90;99.90
9311;DHT22;4694;52.464;13.480;2024-01-30T06:02:04;2.00;99.90
9311;DHT22;4694;52.464;13.480;2024-01-30T06:04:32;2.00;99.90
9311;DHT22;4694;52.464;13.480;2024-01-30T06:06:58;1.90;99.90
9311;DHT22;4694;52.464;13.480;2024-01-30T06:09:27;1.90;99.90
9311;DHT22;4694;52.464;13.480;2024-01-30T06:11:54;1.90;99.90
9311;DHT22;4694;52.464;13.480;2024-01-30T06:14:20;2.00;99.90
9311;DHT22;4694;52.464;13.480;2024-01-30T06:16:47;2.00;99.90
9311;DHT22;4694;52.464;13.480;2024-01-30T06:19:14;2.00;99.90
9311;DHT22;4694;52.464;13.480;2024-01-30T06:21:41;2.00;99.90
9311;DHT22;4694;52.464;13.480;2024-01-30T06:24:08;2.00;99.90
9311;DHT22;4694;52.464;13.480;2024-01-30T06:26:35;2.00;99.90
9311;DHT22;4694;52.464;13.480;2024-01-30T06:29:02;2.00;99.90
9311;DHT22;4694;52.464;13.480;2024-01-30T06:31:28;2.00;99.90
9311;DHT22;4694;52.464;13.480;2024-01-30T06:33:55;2.00;99.90
9311;DHT22;4694;52.464;13.480;2024-01-30T06:36:22;2.00;99.90
9311;DHT22;4694;52.464;13.480;2024-01-30T06:38:50;2.00;99.90
9311;DHT22;4694;52.464;13.480;2024-01-30T06:41:16;2.00;99.90
9311;DHT22;4694;52.464;13.480;2024-01-30T06:43:43;2.10;99.90
9311;DHT22;4694;52.464;13.480;2024-01-30T06:46:10;2.00;99.90
9311;DHT22;4694;52.464;13.480;2024-01-30T06:48:38;2.10;99.90
9311;DHT22;4694;52.464;13.480;2024-01-30T06:51:05;2.10;99.90
9311;DHT22;4694;52.464;13.480;2024-01-30T06:53:32;2.00;99.90
9311;DHT22;4694;52.464;13.480;2024-01-30T06:56:00;2.00;99.90
9311;DHT22;4694;52.464;13.480;2024-01-30T06:58:27;2.00;99.90
9311;DHT22;4694;52.464;13.480;2024-01-30T07:00:54;2.10;99.90
9311;DHT22;4694;52.464;13.480;2024-01-30T07:03:21;2.10;99.90
9311;DHT22;4694;52.464;13.480;2024-01-30T07:05:48;2.20;99.90
9311;DHT22;4694;52.464;13.480;2024-01-30T07:08:15;2.20;99.90
9311;DHT22;4694;52.464;13.480;2024-01-30T07:10:42;2.20;99.90
9311;DHT22;4694;52.464;13.480;2024-01-30T07:13:11;2.20;99.90
9311;DHT22;4694;52.464;13.480;2024-01-30T07:15:38;2.20;99.90
9311;DHT22;4694;52.464;13.480;2024-01-30T07:18:05;2.20;99.90
9311;DHT22;4694;52.464;13.480;2024-01-30T07:20:32;2.20;99.90
9311;DHT22;4694;52.464;13.480;2024-01-30T07:22:58;2.20;99.90
9311;DHT22;4694;52.464;13.480;2024-01-30T07:25:25;2.20;99.90
9311;DHT22;4694;52.464;13.480;2024-01-30T07:27:54;2.30;99.90
9311;DHT22;4694;52.464;13.480;2024-01-30T07:30:23;2.40;99.90
9311;DHT22;4694;52.464;13.480;2024-01-30T07:32:50;2.40;99.90
9311;DHT22;4694;52.464;13.480;2024-01-30T07:35:17;2.50;99.90
9311;DHT22;4694;52.464;13.480;2024-01-30T07:37:44;2.60;99.90
9311;DHT22;4694;52.464;13.480;2024-01-30T07:40:10;2.60;99.90
9311;DHT22;4694;52.464;13.480;2024-01-30T07:42:37;2.70;99.90
9311;DHT22;4694;52.464;13.480;2024-01-30T07:45:04;2.70;99.90
9311;DHT22;4694;52.464;13.480;2024-01-30T07:47:32;2.80;99.90
9311;DHT22;4694;52.464;13.480;2024-01-30T07:49:59;2.80;99.90
9311;DHT22;4694;52.464;13.480;2024-01-30T07:52:26;2.90;99.90
9311;DHT22;4694;52.464;13.480;2024-01-30T07:54:52;2.90;99.90
9311;DHT22;4694;52.464;13.480;2024-01-30T07:57:20;3.00;99.90
9311;DHT22;4694;52.464;13.480;2024-01-30T07:59:47;3.00;99.90
9311;DHT22;4694;52.464;13.480;2024-01-30T08:02:13;3.10;99.90
9311;DHT22;4694;52.464;13.480;2024-01-30T08:04:42;3.10;99.90
9311;DHT22;4694;52.464;13.480;2024-01-30T08:07:08;3.20;99.90
9311;DHT22;4694;52.464;13.480;2024-01-30T08:09:34;3.30;99.90
9311;DHT22;4694;52.464;13.480;2024-01-30T08:12:00;3.40;99.90
9311;DHT22;4694;52.464;13.480;2024-01-30T08:14:27;3.40;99.90
9311;DHT22;4694;52.464;13.480;2024-01-30T08:16:54;3.50;99.90
9311;DHT22;4694;52.464;13.480;2024-01-30T08:19:20;3.60;99.90
9311;DHT22;4694;52.464;13.480;2024-01-30T08:21:48;3.60;99.90
9311;DHT22;4694;52.464;13.480;2024-01-30T08:24:15;3.60;99.90
9311;DHT22;4694;52.464;13.480;2024-01-30T08:26:41;3.70;99.90
9311;DHT22;4694;52.464;13.480;2024-01-30T08:29:08;3.70;99.90
9311;DHT22;4694;52.464;13.480;2024-01-30T08:31:35;3.80;99.90
9311;DHT22;4694;52.464;13.480;2024-01-30T08:34:01;3.90;99.90
9311;DHT22;4694;52.464;13.480;2024-01-30T08:36:28;4.00;99.90
9311;DHT22;4694;52.464;13.480;2024-01-30T08:38:56;4.10;99.90
9311;DHT22;4694;52.464;13.480;2024-01-30T08:41:22;4.10;99.90
9311;DHT22;4694;52.464;13.480;2024-01-30T08:43:49;4.30;99.90
9311;DHT22;4694;52.464;13.480;2024-01-30T08:46:17;4.40;99.90
9311;DHT22;4694;52.464;13.480;2024-01-30T08:48:44;4.60;99.90
9311;DHT22;4694;52.464;13.480;2024-01-30T08:51:11;4.70;99.90
9311;DHT22;4694;52.464;13.480;2024-01-30T08:53:37;4.80;99.90
9311;DHT22;4694;52.464;13.480;2024-01-30T08:56:06;5.00;99.90
9311;DHT22;4694;52.464;13.480;2024-01-30T08:58:33;5.10;99.90
9311;DHT22;4694;52.464;13.480;2024-01-30T09:01:00;5.30;99.90
9311;DHT22;4694;52.464;13.480;2024-01-30T09:03:26;5.40;99.90
9311;DHT22;4694;52.464;13.480;2024-01-30T09:05:53;5.50;99.90
9311;DHT22;4694;52.464;13.480;2024-01-30T09:08:20;5.70;99.90
9311;DHT22;4694;52.464;13.480;2024-01-30T09:10:46;5.90;99.90
9311;DHT22;4694;52.464;13.480;2024-01-30T09:13:14;6.10;99.90
9311;DHT22;4694;52.464;13.480;2024-01-30T09:15:42;6.20;99.90
9311;DHT22;4694;52.464;13.480;2024-01-30T09:18:09;6.30;99.90
9311;DHT22;4694;52.464;13.480;2024-01-30T09:20:36;6.40;99.90
9311;DHT22;4694;52.464;13.480;2024-01-30T09:23:03;6.50;99.90
9311;DHT22;4694;52.464;13.480;2024-01-30T09:25:29;6.60;99.90
9311;DHT22;4694;52.464;13.480;2024-01-30T09:27:56;6.80;99.90
9311;DHT22;4694;52.464;13.480;2024-01-30T09:30:24;7.00;99.90
9311;DHT22;4694;52.464;13.480;2024-01-30T09:32:51;7.10;99.90
9311;DHT22;4694;52.464;13.480;2024-01-30T09:35:17;7.20;99.90
9311;DHT22;4694;52.464;13.480;2024-01-30T09:37:44;7.20;99.90
9311;DHT22;4694;52.464;13.480;2024-01-30T09:40:11;7.30;99.90
9311;DHT22;4694;52.464;13.480;2024-01-30T09:42:38;7.40;99.90
9311;DHT22;4694;52.464;13.480;2024-01-30T09:45:05;7.50;99.90
9311;DHT22;4694;52.464;13.480;2024-01-30T09:47:41;7.50;99.90
9311;DHT22;4694;52.464;13.480;2024-01-30T09:50:09;7.50;99.90
9311;DHT22;4694;52.464;13.480;2024-01-30T09:52:36;7.60;99.90
9311;DHT22;4694;52.464;13.480;2024-01-30T09:55:04;7.70;99.90
9311;DHT22;4694;52.464;13.480;2024-01-30T09:57:30;7.80;99.90
9311;DHT22;4694;52.464;13.480;2024-01-30T09:59:57;7.90;99.90
9311;DHT22;4694;52.464;13.480;2024-01-30T10:02:24;8.00;99.90
9311;DHT22;4694;52.464;13.480;2024-01-30T10:04:52;8.10;99.90
9311;DHT22;4694;52.464;13.480;2024-01-30T10:07:19;8.20;99.90
9311;DHT22;4694;52.464;13.480;2024-01-30T10:09:46;8.30;99.90
9311;DHT22;4694;52.464;13.480;2024-01-30T10:12:15;8.40;99.90
9311;DHT22;4694;52.464;13.480;2024-01-30T10:14:42;8.60;99.90
9311;DHT22;4694;52.464;13.480;2024-01-30T10:17:09;8.80;99.90
9311;DHT22;4694;52.464;13.480;2024-01-30T10:19:37;8.90;99.90
9311;DHT22;4694;52.464;13.480;2024-01-30T10:22:05;9.00;99.90
9311;DHT22;4694;52.464;13.480;2024-01-30T10:24:33;9.00;99.90
9311;DHT22;4694;52.464;13.480;2024-01-30T10:27:00;9.10;99.90
9311;DHT22;4694;52.464;13.480;2024-01-30T10:29:27;9.20;99.90
9311;DHT22;4694;52.464;13.480;2024-01-30T10:32:00;9.20;99.90
9311;DHT22;4694;52.464;13.480;2024-01-30T10:34:27;9.30;99.90
9311;DHT22;4694;52.464;13.480;2024-01-30T10:37:00;9.40;99.90
9311;DHT22;4694;52.464;13.480;2024-01-30T10:39:32;9.40;99.90
9311;DHT22;4694;52.464;13.480;2024-01-30T10:42:04;9.40;99.90
9311;DHT22;4694;52.464;13.480;2024-01-30T10:44:38;9.40;99.90
9311;DHT22;4694;52.464;13.480;2024-01-30T10:47:08;9.50;99.90
9311;DHT22;4694;52.464;13.480;2024-01-30T10:49:38;9.40;99.90
9311;DHT22;4694;52.464;13.480;2024-01-30T10:52:06;9.40;99.90
9311;DHT22;4694;52.464;13.480;2024-01-30T10:54:37;9.40;99.90
9311;DHT22;4694;52.464;13.480;2024-01-30T10:57:04;9.40;99.90
9311;DHT22;4694;52.464;13.480;2024-01-30T10:59:32;9.40;99.90
9311;DHT22;4694;52.464;13.480;2024-01-30T11:01:59;9.50;99.90
9311;DHT22;4694;52.464;13.480;2024-01-30T11:04:26;9.40;99.90
9311;DHT22;4694;52.464;13.480;2024-01-30T11:06:54;9.40;99.90
9311;DHT22;4694;52.464;13.480;2024-01-30T11:09:20;9.40;99.90
9311;DHT22;4694;52.464;13.480;2024-01-30T11:11:56;9.40;99.90
9311;DHT22;4694;52.464;13.480;2024-01-30T11:14:25;9.40;99.90
9311;DHT22;4694;52.464;13.480;2024-01-30T11:16:52;9.40;99.90
9311;DHT22;4694;52.464;13.480;2024-01-30T11:19:23;9.50;99.90
9311;DHT22;4694;52.464;13.480;2024-01-30T11:21:51;9.50;99.90
9311;DHT22;4694;52.464;13.480;2024-01-30T11:24:19;9.50;99.90
9311;DHT22;4694;52.464;13.480;2024-01-30T11:26:48;9.50;99.90
9311;DHT22;4694;52.464;13.480;2024-01-30T11:29:16;9.60;99.90
9311;DHT22;4694;52.464;13.480;2024-01-30T11:31:51;9.60;99.90
9311;DHT22;4694;52.464;13.480;2024-01-30T11:34:18;9.60;99.90
9311;DHT22;4694;52.464;13.480;2024-01-30T11:36:51;9.60;99.90
9311;DHT22;4694;52.464;13.480;2024-01-30T11:39:20;9.70;99.90
9311;DHT22;4694;52.464;13.480;2024-01-30T11:41:48;9.70;99.90
9311;DHT22;4694;52.464;13.480;2024-01-30T11:44:18;9.80;99.90
9311;DHT22;4694;52.464;13.480;2024-01-30T11:46:45;9.80;99.90
9311;DHT22;4694;52.464;13.480;2024-01-30T11:49:12;9.80;99.90
9311;DHT22;4694;52.464;13.480;2024-01-30T11:51:39;9.80;99.90
9311;DHT22;4694;52.464;13.480;2024-01-30T11:54:07;9.80;99.90
9311;DHT22;4694;52.464;13.480;2024-01-30T11:56:33;9.80;99.90
9311;DHT22;4694;52.464;13.480;2024-01-30T11:59:01;9.90;99.90
9311;DHT22;4694;52.464;13.480;2024-01-30T12:01:29;9.90;99.90
9311;DHT22;4694;52.464;13.480;2024-01-30T12:03:55;9.80;99.90
9311;DHT22;4694;52.464;13.480;2024-01-30T12:06:23;9.80;99.90
9311;DHT22;4694;52.464;13.480;2024-01-30T12:08:59;9.80;99.90
9311;DHT22;4694;52.464;13.480;2024-01-30T12:11:26;9.90;99.90
9311;DHT22;4694;52.464;13.480;2024-01-30T12:13:56;10.00;99.90
9311;DHT22;4694;52.464;13.480;2024-01-30T12:16:23;10.10;99.90
9311;DHT22;4694;52.464;13.480;2024-01-30T12:18:59;10.20;99.90
9311;DHT22;4694;52.464;13.480;2024-01-30T12:21:26;10.30;99.90
9311;DHT22;4694;52.464;13.480;2024-01-30T12:23:53;10.30;99.90
9311;DHT22;4694;52.464;13.480;2024-01-30T12:26:20;10.20;99.90
9311;DHT22;4694;52.464;13.480;2024-01-30T12:28:50;10.10;99.90
9311;DHT22;4694;52.464;13.480;2024-01-30T12:31:16;10.00;99.90
9311;DHT22;4694;52.464;13.480;2024-01-30T12:33:43;10.00;99.90
9311;DHT22;4694;52.464;13.480;2024-01-30T12:36:11;10.00;99.90
9311;DHT22;4694;52.464;13.480;2024-01-30T12:38:38;10.00;99.90
9311;DHT22;4694;52.464;13.480;2024-01-30T12:41:07;10.10;99.90
9311;DHT22;4694;52.464;13.480;2024-01-30T12:43:33;10.10;99.90
9311;DHT22;4694;52.464;13.480;2024-01-30T12:46:00;10.20;99.90
9311;DHT22;4694;52.464;13.480;2024-01-30T12:48:27;10.10;99.90
9311;DHT22;4694;52.464;13.480;2024-01-30T12:50:55;10.20;99.90
9311;DHT22;4694;52.464;13.480;2024-01-30T12:53:23;10.20;99.90
9311;DHT22;4694;52.464;13.480;2024-01-30T12:55:49;10.30;99.90
9311;DHT22;4694;52.464;13.480;2024-01-30T12:58:16;10.30;99.90
9311;DHT22;4694;52.464;13.480;2024-01-30T13:00:43;10.40;99.90
9311;DHT22;4694;52.464;13.480;2024-01-30T13:03:10;10.30;99.90
9311;DHT22;4694;52.464;13.480;2024-01-30T13:05:37;10.40;99.90
9311;DHT22;4694;52.464;13.480;2024-01-30T13:08:04;10.40;99.90
9311;DHT22;4694;52.464;13.480;2024-01-30T13:10:32;10.50;99.90
9311;DHT22;4694;52.464;13.480;2024-01-30T13:12:58;10.40;99.90
9311;DHT22;4694;52.464;13.480;2024-01-30T13:15:25;10.50;99.90
9311;DHT22;4694;52.464;13.480;2024-01-30T13:17:52;10.50;99.90
9311;DHT22;4694;52.464;13.480;2024-01-30T13:20:19;10.50;99.90
9311;DHT22;4694;52.464;13.480;2024-01-30T13:22:47;10.50;99.90
9311;DHT22;4694;52.464;13.480;2024-01-30T13:25:15;10.60;99.90
9311;DHT22;4694;52.464;13.480;2024-01-30T13:27:43;10.70;99.90
9311;DHT22;4694;52.464;13.480;2024-01-30T13:30:10;10.70;99.90
9311;DHT22;4694;52.464;13.480;2024-01-30T13:32:37;10.70;99.90
9311;DHT22;4694;52.464;13.480;2024-01-30T13:35:04;10.70;99.90
9311;DHT22;4694;52.464;13.480;2024-01-30T13:37:31;10.70;99.90
9311;DHT22;4694;52.464;13.480;2024-01-30T13:39:57;10.70;99.90
9311;DHT22;4694;52.464;13.480;2024-01-30T13:42:24;10.70;99.90
9311;DHT22;4694;52.464;13.480;2024-01-30T13:44:52;10.70;99.90
9311;DHT22;4694;52.464;13.480;2024-01-30T13:47:19;10.70;99.90
9311;DHT22;4694;52.464;13.480;2024-01-30T13:49:47;10.60;99.90
9311;DHT22;4694;52.464;13.480;2024-01-30T13:52:13;10.60;99.90
9311;DHT22;4694;52.464;13.480;2024-01-30T13:54:39;10.60;99.90
9311;DHT22;4694;52.464;13.480;2024-01-30T13:57:06;10.60;99.90
9311;DHT22;4694;52.464;13.480;2024-01-30T13:59:34;10.50;99.90
9311;DHT22;4694;52.464;13.480;2024-01-30T14:02:02;10.40;99.90
9311;DHT22;4694;52.464;13.480;2024-01-30T14:04:28;10.40;99.90
9311;DHT22;4694;52.464;13.480;2024-01-30T14:06:55;10.30;99.90
9311;DHT22;4694;52.464;13.480;2024-01-30T14:09:21;10.30;99.90
9311;DHT22;4694;52.464;13.480;2024-01-30T14:11:48;10.20;99.90
9311;DHT22;4694;52.464;13.480;2024-01-30T14:14:15;10.20;99.90
9311;DHT22;4694;52.464;13.480;2024-01-30T14:16:41;10.10;99.90
9311;DHT22;4694;52.464;13.480;2024-01-30T14:19:09;10.10;99.90
9311;DHT22;4694;52.464;13.480;2024-01-30T14:21:36;10.10;99.90
9311;DHT22;4694;52.464;13.480;2024-01-30T14:24:04;10.10;99.90
9311;DHT22;4694;52.464;13.480;2024-01-30T14:26:30;10.10;99.90
9311;DHT22;4694;52.464;13.480;2024-01-30T14:28:57;10.10;99.90
9311;DHT22;4694;52.464;13.480;2024-01-30T14:31:24;10.10;99.90
9311;DHT22;4694;52.464;13.480;2024-01-30T14:33:50;10.10;99.90
9311;DHT22;4694;52.464;13.480;2024-01-30T14:36:19;10.00;99.90
9311;DHT22;4694;52.464;13.480;2024-01-30T14:38:46;10.00;99.90
9311;DHT22;4694;52.464;13.480;2024-01-30T14:41:12;9.90;99.90
9311;DHT22;4694;52.464;13.480;2024-01-30T14:43:40;9.90;99.90
9311;DHT22;4694;52.464;13.480;2024-01-30T14:46:06;9.80;99.90
9311;DHT22;4694;52.464;13.480;2024-01-30T14:48:33;9.80;99.90
9311;DHT22;4694;52.464;13.480;2024-01-30T14:51:00;9.80;99.90
9311;DHT22;4694;52.464;13.480;2024-01-30T14:53:28;9.70;99.90
9311;DHT22;4694;52.464;13.480;2024-01-30T14:55:55;9.70;99.90
9311;DHT22;4694;52.464;13.480;2024-01-30T14:58:21;9.60;99.90
9311;DHT22;4694;52.464;13.480;2024-01-30T15:00:49;9.50;99.90
9311;DHT22;4694;52.464;13.480;2024-01-30T15:03:15;9.40;99.90
9311;DHT22;4694;52.464;13.480;2024-01-30T15:05:42;9.40;99.90
9311;DHT22;4694;52.464;13.480;2024-01-30T15:08:08;9.30;99.90
9311;DHT22;4694;52.464;13.480;2024-01-30T15:10:36;9.30;99.90
9311;DHT22;4694;52.464;13.480;2024-01-30T15:13:03;9.20;99.90
9311;DHT22;4694;52.464;13.480;2024-01-30T15:15:30;9.10;99.90
9311;DHT22;4694;52.464;13.480;2024-01-30T15:17:57;9.10;99.90
9311;DHT22;4694;52.464;13.480;2024-01-30T15:20:23;9.00;99.90
9311;DHT22;4694;52.464;13.480;2024-01-30T15:22:50;8.90;99.90
9311;DHT22;4694;52.464;13.480;2024-01-30T15:25:16;8.90;99.90
9311;DHT22;4694;52.464;13.480;2024-01-30T15:27:44;8.80;99.90
9311;DHT22;4694;52.464;13.480;2024-01-30T15:30:12;8.70;99.90
9311;DHT22;4694;52.464;13.480;2024-01-30T15:32:39;8.70;99.90
9311;DHT22;4694;52.464;13.480;2024-01-30T15:35:06;8.70;99.90
9311;DHT22;4694;52.464;13.480;2024-01-30T15:37:33;8.70;99.90
9311;DHT22;4694;52.464;13.480;2024-01-30T15:40:00;8.60;99.90
9311;DHT22;4694;52.464;13.480;2024-01-30T15:42:28;8.50;99.90
9311;DHT22;4694;52.464;13.480;2024-01-30T15:44:56;8.40;99.90
9311;DHT22;4694;52.464;13.480;2024-01-30T15:47:24;8.40;99.90
9311;DHT22;4694;52.464;13.480;2024-01-30T15:49:50;8.40;99.90
9311;DHT22;4694;52.464;13.480;2024-01-30T15:52:17;8.30;99.90
9311;DHT22;4694;52.464;13.480;2024-01-30T15:54:44;8.20;99.90
9311;DHT22;4694;52.464;13.480;2024-01-30T15:57:11;8.20;99.90
9311;DHT22;4694;52.464;13.480;2024-01-30T15:59:37;8.10;99.90